Weather at Cochituate Heliport

Public forecast

Using degrees Fahrenheit for public forecast. Weather courtesy of forecast.io.

Closest aviation weather report (METAR) to Cochituate Heliport

Closest report is Laurence G Hanscom Field, 10.5 nm (19.5 km) NNE. Retrieved 2020/09/18 12:51 UTC (17 minutes ago):

KBED 181251Z 02009KT 10SM SCT020 BKN085 15/08 A3000 RMK AO2 SLP171 T01500083

Closest aviation forecast (TAF) to Cochituate Heliport

Closest forecast is Laurence G Hanscom Field, 10.5 nm (19.5 km) NNE. Retrieved 2020/09/18 12:28 UTC (40 minutes ago):

TAF KBED 181126Z 1812/1912 02009KT P6SM SCT025 BKN050 FM181400 02011G21KT P6SM BKN025 FM181800 01011G22KT P6SM BKN035 FM182100 02010G19KT P6SM FEW080 FM190000 36008KT P6SM FEW250